createdAt,value
2023-03-14T00:01:12.767Z,98884.00
2023-03-14T00:03:41.095Z,98882.40
2023-03-14T00:06:10.235Z,98880.93
2023-03-14T00:08:38.655Z,98881.70
2023-03-14T00:11:18.460Z,98880.64
2023-03-14T00:13:51.021Z,98882.42
2023-03-14T00:16:21.774Z,98885.77
2023-03-14T00:18:49.845Z,98890.52
2023-03-14T00:21:18.248Z,98886.48
2023-03-14T00:23:46.275Z,98887.70
2023-03-14T00:26:16.991Z,98881.77
2023-03-14T00:28:45.516Z,98879.73
2023-03-14T00:31:16.065Z,98874.64
2023-03-14T00:33:45.749Z,98872.94
2023-03-14T00:36:18.128Z,98863.38
2023-03-14T00:38:48.816Z,98863.39
2023-03-14T00:41:19.714Z,98863.27
2023-03-14T00:43:49.299Z,98858.20
2023-03-14T00:46:17.412Z,98858.36
2023-03-14T00:48:47.035Z,98851.15
2023-03-14T00:51:16.429Z,98845.55
2023-03-14T00:53:45.211Z,98847.27
2023-03-14T00:56:14.139Z,98846.22
2023-03-14T00:58:41.956Z,98837.98
2023-03-14T01:01:13.617Z,98840.30
2023-03-14T01:03:41.663Z,98835.48
2023-03-14T01:06:12.822Z,98829.61
2023-03-14T01:08:41.148Z,98827.91
2023-03-14T01:11:16.351Z,98828.80
2023-03-14T01:13:44.237Z,98826.70
2023-03-14T01:16:13.474Z,98826.69
2023-03-14T01:18:44.656Z,98822.55
2023-03-14T01:21:16.351Z,98816.90
2023-03-14T01:23:45.612Z,98808.69
2023-03-14T01:26:16.661Z,98800.31
2023-03-14T01:28:44.493Z,98795.93
2023-03-14T01:31:13.862Z,98792.26
2023-03-14T01:33:42.149Z,98779.45
2023-03-14T01:36:11.527Z,98770.54
2023-03-14T01:38:41.022Z,98753.61
2023-03-14T01:41:26.083Z,98731.59
2023-03-14T01:43:55.346Z,98705.80
2023-03-14T01:46:31.578Z,98681.64
2023-03-14T01:49:15.298Z,98658.25
2023-03-14T01:52:23.828Z,98636.29
2023-03-14T01:55:06.850Z,98633.79
2023-03-14T01:57:44.159Z,98660.94
2023-03-14T02:00:18.002Z,98681.23
2023-03-14T02:02:48.642Z,98690.59
2023-03-14T02:05:24.078Z,98707.44
2023-03-14T02:08:00.040Z,98710.91
2023-03-14T02:10:38.097Z,98715.86
2023-03-14T02:13:06.768Z,98712.23
2023-03-14T02:15:47.150Z,98709.92
2023-03-14T02:18:35.239Z,98705.12
2023-03-14T02:21:20.016Z,98698.16
2023-03-14T02:24:06.979Z,98698.67
2023-03-14T02:27:09.428Z,98700.73
2023-03-14T02:29:48.262Z,98704.16
2023-03-14T02:32:18.853Z,98703.89
2023-03-14T02:34:51.039Z,98698.66
2023-03-14T02:37:22.857Z,98705.48
2023-03-14T02:39:50.686Z,98707.55
2023-03-14T02:42:19.673Z,98707.20
2023-03-14T02:45:16.727Z,98706.56
2023-03-14T02:47:52.753Z,98703.04
2023-03-14T02:50:23.509Z,98695.67
2023-03-14T02:52:51.654Z,98688.70
2023-03-14T02:55:23.860Z,98682.96
2023-03-14T02:57:52.474Z,98678.14
2023-03-14T03:00:20.726Z,98675.27
2023-03-14T03:02:48.601Z,98679.98
2023-03-14T03:05:16.683Z,98678.35
2023-03-14T03:07:44.533Z,98675.39
2023-03-14T03:10:12.811Z,98688.89
2023-03-14T03:12:40.765Z,98700.23
2023-03-14T03:15:09.024Z,98701.20
2023-03-14T03:17:37.751Z,98695.19
2023-03-14T03:20:10.239Z,98698.91
2023-03-14T03:22:40.777Z,98698.38
2023-03-14T03:25:11.537Z,98697.85
2023-03-14T03:27:39.563Z,98695.83
2023-03-14T03:30:09.538Z,98691.83
2023-03-14T03:32:37.758Z,98696.80
2023-03-14T03:35:07.573Z,98692.48
2023-03-14T03:37:38.378Z,98683.40
2023-03-14T03:40:08.646Z,98676.86
2023-03-14T03:42:37.226Z,98672.34
2023-03-14T03:45:06.028Z,98666.39
2023-03-14T03:47:35.605Z,98664.13
2023-03-14T03:50:04.948Z,98654.01
2023-03-14T03:52:33.557Z,98650.77
2023-03-14T03:55:01.507Z,98653.65
2023-03-14T03:57:30.147Z,98645.77
2023-03-14T03:59:58.022Z,98637.27
2023-03-14T04:02:25.827Z,98631.27
2023-03-14T04:04:54.156Z,98627.89
2023-03-14T04:07:22.087Z,98628.04
2023-03-14T04:09:50.611Z,98620.20
2023-03-14T04:12:47.396Z,98623.78
2023-03-14T04:15:20.409Z,98623.15
2023-03-14T04:17:57.011Z,98624.77
2023-03-14T04:20:25.054Z,98627.55
2023-03-14T04:22:53.506Z,98641.54
2023-03-14T04:25:21.455Z,98642.86
2023-03-14T04:27:54.174Z,98641.20
2023-03-14T04:30:26.046Z,98630.41
2023-03-14T04:33:03.722Z,98615.65
2023-03-14T04:35:33.896Z,98614.71
2023-03-14T04:38:06.428Z,98626.30
2023-03-14T04:40:38.458Z,98609.27
2023-03-14T04:43:09.315Z,98588.89
2023-03-14T04:45:37.909Z,98585.58
2023-03-14T04:48:08.818Z,98595.13
2023-03-14T04:50:36.796Z,98607.70
2023-03-14T04:53:04.673Z,98606.23
2023-03-14T04:55:35.799Z,98599.75
2023-03-14T04:58:03.828Z,98598.30
2023-03-14T05:00:31.898Z,98597.84
2023-03-14T05:03:10.186Z,98604.08
2023-03-14T05:05:58.494Z,98617.70
2023-03-14T05:08:45.997Z,98615.56
2023-03-14T05:11:33.752Z,98608.27
2023-03-14T05:14:16.753Z,98614.81
2023-03-14T05:17:03.503Z,98614.95
2023-03-14T05:20:10.200Z,98616.30
2023-03-14T05:22:56.709Z,98618.85
2023-03-14T05:26:03.218Z,98612.05
2023-03-14T05:28:40.563Z,98606.83
2023-03-14T05:31:14.724Z,98610.52
2023-03-14T05:34:01.047Z,98610.15
2023-03-14T05:36:58.309Z,98617.64
2023-03-14T05:39:49.246Z,98619.08
2023-03-14T05:42:34.411Z,98618.20
2023-03-14T05:45:19.223Z,98605.19
2023-03-14T05:48:03.651Z,98598.55
2023-03-14T05:50:48.467Z,98597.79
2023-03-14T05:53:24.601Z,98599.16
2023-03-14T05:56:11.380Z,98602.58
2023-03-14T05:59:08.599Z,98600.00
2023-03-14T06:01:59.645Z,98605.78
2023-03-14T06:04:29.090Z,98607.30
2023-03-14T06:06:59.802Z,98608.77
2023-03-14T06:09:27.662Z,98610.25
2023-03-14T06:11:57.600Z,98615.48
2023-03-14T06:14:25.684Z,98621.63
2023-03-14T06:16:54.267Z,98619.31
2023-03-14T06:19:23.316Z,98619.86
2023-03-14T06:21:51.375Z,98619.49
2023-03-14T06:24:19.311Z,98622.76
2023-03-14T06:26:48.697Z,98623.13
2023-03-14T06:29:16.689Z,98615.23
2023-03-14T06:31:45.214Z,98609.90
2023-03-14T06:34:16.244Z,98614.39
2023-03-14T06:36:45.177Z,98606.17
2023-03-14T06:39:13.196Z,98597.83
2023-03-14T06:41:43.863Z,98599.00
2023-03-14T06:44:12.071Z,98605.70
2023-03-14T06:46:40.015Z,98608.55
2023-03-14T06:49:07.920Z,98608.36
2023-03-14T06:51:35.889Z,98615.11
2023-03-14T06:54:05.365Z,98614.88
2023-03-14T06:56:33.610Z,98602.85
2023-03-14T06:59:01.804Z,98592.45
2023-03-14T07:01:33.852Z,98586.17
2023-03-14T07:04:10.610Z,98588.95
2023-03-14T07:06:45.297Z,98581.80
2023-03-14T07:09:13.539Z,98578.73
2023-03-14T07:11:44.743Z,98580.71
2023-03-14T07:14:13.222Z,98585.42
2023-03-14T07:16:41.064Z,98582.13
2023-03-14T07:19:09.049Z,98582.40
2023-03-14T07:21:37.690Z,98581.82
2023-03-14T07:24:08.903Z,98575.05
2023-03-14T07:26:36.934Z,98573.96
2023-03-14T07:29:04.921Z,98570.52
2023-03-14T07:31:33.202Z,98568.16
2023-03-14T07:34:01.443Z,98570.64
2023-03-14T07:36:33.318Z,98567.98
2023-03-14T07:39:01.215Z,98567.54
2023-03-14T07:41:41.736Z,98579.20
2023-03-14T07:44:41.842Z,98583.52
2023-03-14T07:47:10.474Z,98586.86
2023-03-14T07:49:38.799Z,98590.80
2023-03-14T07:52:06.830Z,98596.33
2023-03-14T07:54:34.673Z,98592.95
2023-03-14T07:57:02.858Z,98585.27
2023-03-14T07:59:31.319Z,98583.88
2023-03-14T08:01:59.776Z,98581.70
2023-03-14T08:04:28.504Z,98577.45
2023-03-14T08:06:56.307Z,98578.78
2023-03-14T08:09:24.332Z,98581.64
2023-03-14T08:11:52.126Z,98590.63
2023-03-14T08:14:20.028Z,98590.44
2023-03-14T08:16:48.151Z,98606.21
2023-03-14T08:19:15.965Z,98614.57
2023-03-14T08:21:44.410Z,98613.56
2023-03-14T08:24:12.281Z,98615.05
2023-03-14T08:26:40.282Z,98614.89
2023-03-14T08:29:09.181Z,98609.89
2023-03-14T08:31:37.066Z,98608.94
2023-03-14T08:34:05.200Z,98603.96
2023-03-14T08:36:33.631Z,98605.64
2023-03-14T08:39:01.590Z,98611.05
2023-03-14T08:41:29.649Z,98613.22
2023-03-14T08:43:57.621Z,98606.61
2023-03-14T08:46:25.600Z,98597.64
2023-03-14T08:48:53.394Z,98589.27
2023-03-14T08:51:21.267Z,98593.35
2023-03-14T08:53:49.072Z,98601.70
2023-03-14T08:56:16.911Z,98604.41
2023-03-14T08:58:45.046Z,98607.23
2023-03-14T09:01:13.265Z,98612.87
2023-03-14T09:03:41.162Z,98614.81
2023-03-14T09:06:10.973Z,98613.48
2023-03-14T09:08:39.682Z,98614.73
2023-03-14T09:11:09.686Z,98611.59
2023-03-14T09:13:37.778Z,98608.55
2023-03-14T09:16:07.408Z,98605.64
2023-03-14T09:18:35.715Z,98605.98
2023-03-14T09:21:04.043Z,98610.39
2023-03-14T09:23:32.381Z,98610.73
2023-03-14T09:26:01.244Z,98613.97
2023-03-14T09:28:29.699Z,98616.66
2023-03-14T09:30:57.591Z,98620.67
2023-03-14T09:33:25.552Z,98622.40
2023-03-14T09:35:53.505Z,98622.36
2023-03-14T09:38:21.901Z,98619.42
2023-03-14T09:40:50.676Z,98616.56
2023-03-14T09:43:18.686Z,98613.39
2023-03-14T09:45:49.597Z,98612.30
2023-03-14T09:48:22.260Z,98614.36
2023-03-14T09:50:53.749Z,98610.23
2023-03-14T09:53:27.124Z,98611.42
2023-03-14T09:55:56.369Z,98611.38
2023-03-14T09:58:25.608Z,98610.10
2023-03-14T10:00:57.511Z,98611.79
2023-03-14T10:03:30.610Z,98612.90
2023-03-14T10:05:58.484Z,98611.34
2023-03-14T10:08:27.470Z,98606.68
2023-03-14T10:10:55.748Z,98606.44
2023-03-14T10:13:30.419Z,98610.80
2023-03-14T10:16:05.262Z,98606.13
2023-03-14T10:18:36.861Z,98610.40
2023-03-14T10:21:17.833Z,98607.68
2023-03-14T10:23:47.997Z,98606.84
2023-03-14T10:26:29.021Z,98610.48
2023-03-14T10:29:14.053Z,98610.95
2023-03-14T10:31:53.277Z,98611.58
2023-03-14T10:34:30.721Z,98607.14
2023-03-14T10:37:06.673Z,98605.50
2023-03-14T10:39:40.228Z,98613.48
2023-03-14T10:42:14.669Z,98608.80
2023-03-14T10:44:43.253Z,98614.02
2023-03-14T10:47:21.535Z,98617.98
2023-03-14T10:49:49.700Z,98619.89
2023-03-14T10:52:57.406Z,98612.20
2023-03-14T10:55:17.933Z,98607.45
2023-03-14T10:57:45.915Z,98610.81
2023-03-14T11:00:23.128Z,98612.66
2023-03-14T11:02:54.070Z,98610.45
2023-03-14T11:05:41.056Z,98611.84
2023-03-14T11:08:30.585Z,98615.14
2023-03-14T11:11:23.167Z,98617.91
2023-03-14T11:14:08.640Z,98613.06
2023-03-14T11:16:59.789Z,98608.80
2023-03-14T11:19:39.415Z,98604.41
2023-03-14T11:22:40.448Z,98601.48
2023-03-14T11:25:27.351Z,98600.94
2023-03-14T11:28:08.915Z,98597.41
2023-03-14T11:30:47.474Z,98601.65
2023-03-14T11:33:26.184Z,98600.06
2023-03-14T11:36:12.946Z,98594.38
2023-03-14T11:38:53.817Z,98590.64
2023-03-14T11:41:27.062Z,98588.31
2023-03-14T11:43:57.987Z,98592.95
2023-03-14T11:46:27.929Z,98594.14
2023-03-14T11:49:23.309Z,98594.91
2023-03-14T11:51:53.168Z,98583.60
2023-03-14T11:54:36.468Z,98573.70
2023-03-14T11:57:06.944Z,98565.75
2023-03-14T12:00:13.783Z,98561.85
2023-03-14T12:02:41.634Z,98559.45
2023-03-14T12:05:43.632Z,98559.18
2023-03-14T12:08:17.321Z,98563.61
2023-03-14T12:10:48.122Z,98561.64
2023-03-14T12:13:17.833Z,98560.76
2023-03-14T12:16:00.784Z,98561.92
2023-03-14T12:18:40.555Z,98566.89
2023-03-14T12:21:12.176Z,98565.34
2023-03-14T12:23:52.700Z,98571.64
2023-03-14T12:26:44.256Z,98569.07
2023-03-14T12:29:19.093Z,98569.70
2023-03-14T12:31:50.002Z,98567.05
2023-03-14T12:34:17.938Z,98561.95
2023-03-14T12:36:55.400Z,98565.35
2023-03-14T12:39:38.890Z,98564.30
2023-03-14T12:42:11.711Z,98562.57
2023-03-14T12:44:50.316Z,98567.00
2023-03-14T12:47:21.049Z,98562.42
2023-03-14T12:49:58.310Z,98560.64
2023-03-14T12:52:44.663Z,98564.53
2023-03-14T12:55:37.290Z,98565.49
2023-03-14T12:58:39.888Z,98562.22
2023-03-14T13:01:15.878Z,98564.23
2023-03-14T13:03:46.564Z,98565.10
2023-03-14T13:06:55.062Z,98564.70
2023-03-14T13:09:28.796Z,98564.75
2023-03-14T13:12:02.876Z,98566.64
2023-03-14T13:14:32.361Z,98567.08
2023-03-14T13:17:10.429Z,98567.61
2023-03-14T13:19:57.355Z,98565.94
2023-03-14T13:22:29.896Z,98565.00
2023-03-14T13:25:03.293Z,98562.34
2023-03-14T13:27:34.217Z,98563.25
2023-03-14T13:30:16.794Z,98561.31
2023-03-14T13:32:48.777Z,98566.73
2023-03-14T13:35:46.147Z,98563.67
2023-03-14T13:38:19.306Z,98566.68
2023-03-14T13:40:48.511Z,98565.25
2023-03-14T13:43:16.391Z,98570.57
2023-03-14T13:45:50.454Z,98567.57
2023-03-14T13:48:19.561Z,98560.02
2023-03-14T13:50:53.292Z,98557.63
2023-03-14T13:53:21.410Z,98558.77
2023-03-14T13:55:51.376Z,98559.35
2023-03-14T13:58:31.546Z,98566.05
2023-03-14T14:01:12.698Z,98561.98
2023-03-14T14:03:42.893Z,98560.83
2023-03-14T14:06:28.284Z,98564.52
2023-03-14T14:08:58.623Z,98564.14
2023-03-14T14:11:48.917Z,98560.57
2023-03-14T14:14:32.559Z,98555.10
2023-03-14T14:17:02.714Z,98548.84
2023-03-14T14:19:34.219Z,98543.80
2023-03-14T14:22:03.879Z,98548.52
2023-03-14T14:24:33.591Z,98546.96
2023-03-14T14:27:09.532Z,98548.36
2023-03-14T14:29:37.286Z,98558.58
2023-03-14T14:32:08.113Z,98565.47
2023-03-14T14:34:50.865Z,98569.36
2023-03-14T14:37:28.668Z,98572.45
2023-03-14T14:39:59.963Z,98567.16
2023-03-14T14:42:32.764Z,98569.50
2023-03-14T14:45:04.040Z,98566.59
2023-03-14T14:47:32.129Z,98558.14
2023-03-14T14:50:04.474Z,98558.20
2023-03-14T14:52:39.210Z,98553.52
2023-03-14T14:55:20.726Z,98547.11
2023-03-14T14:57:57.689Z,98549.39
2023-03-14T15:00:28.109Z,98549.75
2023-03-14T15:03:00.019Z,98552.76
2023-03-14T15:05:31.378Z,98553.72
2023-03-14T15:07:59.236Z,98552.80
2023-03-14T15:10:27.404Z,98553.36
2023-03-14T15:12:55.780Z,98554.13
2023-03-14T15:15:23.586Z,98554.23
2023-03-14T15:17:51.506Z,98548.36
2023-03-14T15:20:20.596Z,98539.82
2023-03-14T15:22:48.550Z,98540.84
2023-03-14T15:25:39.926Z,98538.16
2023-03-14T15:28:04.814Z,98543.77
2023-03-14T15:30:32.765Z,98543.81
2023-03-14T15:33:00.713Z,98540.42
2023-03-14T15:35:28.625Z,98541.03
2023-03-14T15:37:56.485Z,98534.74
2023-03-14T15:40:25.704Z,98535.55
2023-03-14T15:42:53.554Z,98531.94
2023-03-14T15:45:21.414Z,98533.08
2023-03-14T15:47:49.329Z,98533.45
2023-03-14T15:50:17.413Z,98529.86
2023-03-14T15:52:45.219Z,98528.54
2023-03-14T15:55:13.201Z,98528.98
2023-03-14T15:57:43.968Z,98533.92
2023-03-14T16:00:19.565Z,98535.13
2023-03-14T16:02:47.360Z,98534.48
2023-03-14T16:05:16.839Z,98537.08
2023-03-14T16:07:45.007Z,98533.80
2023-03-14T16:10:14.476Z,98527.26
2023-03-14T16:12:43.181Z,98526.43
2023-03-14T16:15:11.324Z,98526.95
2023-03-14T16:17:41.247Z,98525.48
2023-03-14T16:20:09.709Z,98527.73
2023-03-14T16:22:37.595Z,98524.19
2023-03-14T16:25:07.330Z,98524.20
2023-03-14T16:27:35.310Z,98524.71
2023-03-14T16:30:04.379Z,98522.37
2023-03-14T16:32:32.437Z,98523.14
2023-03-14T16:35:00.459Z,98527.30
2023-03-14T16:37:28.473Z,98528.59
2023-03-14T16:40:11.576Z,98528.03
2023-03-14T16:42:59.705Z,98528.60
2023-03-14T16:45:28.930Z,98530.48
2023-03-14T16:47:56.884Z,98528.60
2023-03-14T16:50:24.779Z,98531.88
2023-03-14T16:52:52.740Z,98535.59
2023-03-14T16:55:20.865Z,98538.39
2023-03-14T16:57:48.846Z,98542.34
2023-03-14T17:00:17.221Z,98546.40
2023-03-14T17:02:45.145Z,98557.05
2023-03-14T17:05:13.132Z,98561.08
2023-03-14T17:07:41.572Z,98567.14
2023-03-14T17:10:11.370Z,98572.20
2023-03-14T17:12:39.171Z,98575.03
2023-03-14T17:15:08.003Z,98576.27
2023-03-14T17:17:35.993Z,98580.10
2023-03-14T17:20:05.958Z,98586.35
2023-03-14T17:22:34.059Z,98597.33
2023-03-14T17:25:02.521Z,98605.24
2023-03-14T17:27:30.578Z,98615.13
2023-03-14T17:29:58.366Z,98616.75
2023-03-14T17:32:26.833Z,98611.43
2023-03-14T17:34:54.839Z,98615.05
2023-03-14T17:37:22.921Z,98617.95
2023-03-14T17:39:50.816Z,98605.80
2023-03-14T17:42:18.928Z,98611.34
2023-03-14T17:44:46.780Z,98615.69
2023-03-14T17:47:14.593Z,98614.94
2023-03-14T17:49:42.623Z,98612.45
2023-03-14T17:52:12.906Z,98609.89
2023-03-14T17:54:41.127Z,98603.58
2023-03-14T17:57:09.326Z,98601.79
2023-03-14T17:59:37.149Z,98604.11
2023-03-14T18:02:05.426Z,98606.64
2023-03-14T18:04:33.520Z,98607.04
2023-03-14T18:07:01.732Z,98610.39
2023-03-14T18:09:29.538Z,98607.54
2023-03-14T18:12:07.155Z,98614.02
2023-03-14T18:14:37.286Z,98617.88
2023-03-14T18:17:06.193Z,98622.48
2023-03-14T18:19:34.411Z,98623.96
2023-03-14T18:22:02.221Z,98623.38
2023-03-14T18:24:30.482Z,98626.73
2023-03-14T18:26:58.384Z,98628.91
2023-03-14T18:29:26.356Z,98630.23
2023-03-14T18:31:56.949Z,98631.85
2023-03-14T18:34:25.708Z,98632.94
2023-03-14T18:36:54.018Z,98627.77
2023-03-14T18:39:22.288Z,98627.79
2023-03-14T18:41:50.774Z,98623.03
2023-03-14T18:44:18.998Z,98623.55
2023-03-14T18:46:48.749Z,98626.08
2023-03-14T18:49:16.766Z,98629.34
2023-03-14T18:51:44.917Z,98632.77
2023-03-14T18:54:13.061Z,98631.58
2023-03-14T18:56:41.560Z,98628.86
2023-03-14T18:59:10.617Z,98629.52
2023-03-14T19:01:39.380Z,98629.50
2023-03-14T19:04:09.510Z,98630.72
2023-03-14T19:06:38.770Z,98631.98
2023-03-14T19:09:07.007Z,98635.71
2023-03-14T19:11:34.861Z,98637.87
2023-03-14T19:14:03.934Z,98649.28
2023-03-14T19:16:32.435Z,98649.79
2023-03-14T19:19:00.990Z,98653.08
2023-03-14T19:21:31.715Z,98651.98
2023-03-14T19:23:59.942Z,98652.69
2023-03-14T19:26:30.159Z,98655.14
2023-03-14T19:28:59.087Z,98664.77
2023-03-14T19:31:27.790Z,98802.91
2023-03-14T19:33:55.662Z,98851.61
2023-03-14T19:36:26.873Z,98854.96
2023-03-14T19:38:55.226Z,98885.20
2023-03-14T19:41:25.440Z,98908.22
2023-03-14T19:43:53.457Z,98940.19
2023-03-14T19:46:22.876Z,98955.92
2023-03-14T19:48:54.512Z,98967.25
2023-03-14T19:51:23.116Z,98987.58
2023-03-14T19:53:51.809Z,99001.34
2023-03-14T19:56:21.023Z,99020.27
2023-03-14T19:58:49.305Z,99037.34
2023-03-14T20:01:17.169Z,99066.20
2023-03-14T20:03:45.126Z,99080.36
2023-03-14T20:06:13.271Z,99093.75
2023-03-14T20:08:43.178Z,99104.49
2023-03-14T20:11:11.223Z,99115.77
2023-03-14T20:13:39.454Z,99122.44
2023-03-14T20:16:10.732Z,99137.66
2023-03-14T20:18:39.758Z,99150.16
2023-03-14T20:21:12.938Z,99168.52
2023-03-14T20:23:44.108Z,99182.89
2023-03-14T20:26:12.262Z,99201.65
2023-03-14T20:28:42.780Z,99206.67
2023-03-14T20:31:10.847Z,99213.08
2023-03-14T20:33:38.921Z,99232.59
2023-03-14T20:36:07.865Z,99246.95
2023-03-14T20:38:36.844Z,99263.15
2023-03-14T20:41:05.624Z,99266.77
2023-03-14T20:43:34.096Z,99275.50
2023-03-14T20:46:02.757Z,99289.27
2023-03-14T20:48:31.636Z,99311.69
2023-03-14T20:51:01.620Z,99320.30
2023-03-14T20:53:29.515Z,99320.05
2023-03-14T20:55:58.296Z,99323.48
2023-03-14T20:58:26.283Z,99340.30
2023-03-14T21:00:55.747Z,99351.29
2023-03-14T21:03:24.703Z,99369.90
2023-03-14T21:05:52.913Z,99387.13
2023-03-14T21:08:23.852Z,99401.80
2023-03-14T21:10:54.541Z,99410.59
2023-03-14T21:13:24.250Z,99422.62
2023-03-14T21:15:52.552Z,99439.70
2023-03-14T21:18:23.037Z,99457.47
2023-03-14T21:20:53.408Z,99464.33
2023-03-14T21:23:26.386Z,99472.11
2023-03-14T21:25:56.676Z,99483.06
2023-03-14T21:28:25.138Z,99492.91
2023-03-14T21:30:53.447Z,99498.23
2023-03-14T21:33:21.373Z,99501.77
2023-03-14T21:35:49.180Z,99504.67
2023-03-14T21:38:16.923Z,99501.98
2023-03-14T21:40:49.940Z,99506.89
2023-03-14T21:43:21.830Z,99512.75
2023-03-14T21:45:50.143Z,99520.51
2023-03-14T21:48:18.499Z,99526.52
2023-03-14T21:50:47.051Z,99530.77
2023-03-14T21:53:15.398Z,99546.20
2023-03-14T21:55:44.613Z,99555.83
2023-03-14T21:58:16.067Z,99559.10
2023-03-14T22:00:51.196Z,99558.41
2023-03-14T22:03:24.339Z,99550.54
2023-03-14T22:05:52.200Z,99548.28
2023-03-14T22:08:20.636Z,99548.78
2023-03-14T22:10:53.428Z,99567.23
2023-03-14T22:13:23.736Z,99583.35
2023-03-14T22:15:52.499Z,99579.92
2023-03-14T22:18:20.338Z,99582.75
2023-03-14T22:20:48.116Z,99588.23
2023-03-14T22:23:16.012Z,99596.73
2023-03-14T22:25:47.566Z,99599.61
2023-03-14T22:28:15.709Z,99602.02
2023-03-14T22:30:46.903Z,99608.70
2023-03-14T22:33:15.502Z,99618.13
2023-03-14T22:35:50.647Z,99624.97
2023-03-14T22:38:19.209Z,99617.15
2023-03-14T22:40:48.098Z,99621.40
2023-03-14T22:43:16.517Z,99622.48
2023-03-14T22:45:45.027Z,99624.06
2023-03-14T22:48:13.018Z,99625.75
2023-03-14T22:50:40.868Z,99626.06
2023-03-14T22:53:08.735Z,99634.08
2023-03-14T22:55:36.538Z,99634.77
2023-03-14T22:58:04.386Z,99636.31
2023-03-14T23:00:33.076Z,99643.80
2023-03-14T23:03:01.135Z,99639.34
2023-03-14T23:05:29.007Z,99651.23
2023-03-14T23:07:56.809Z,99659.41
2023-03-14T23:10:24.577Z,99670.16
2023-03-14T23:12:54.257Z,99676.67
2023-03-14T23:15:22.050Z,99685.38
2023-03-14T23:17:49.796Z,99687.36
2023-03-14T23:20:17.650Z,99696.35
2023-03-14T23:22:46.061Z,99704.61
2023-03-14T23:25:13.941Z,99711.56
2023-03-14T23:27:46.334Z,99718.48
2023-03-14T23:30:16.070Z,99729.56
2023-03-14T23:32:43.886Z,99737.52
2023-03-14T23:35:12.669Z,99746.52
2023-03-14T23:37:41.285Z,99751.59
2023-03-14T23:40:10.261Z,99761.14
2023-03-14T23:42:38.837Z,99768.99
2023-03-14T23:45:07.479Z,99777.42
2023-03-14T23:47:35.351Z,99781.83
2023-03-14T23:50:03.215Z,99787.44
2023-03-14T23:52:30.954Z,99786.26
2023-03-14T23:54:58.747Z,99787.23
2023-03-14T23:57:26.489Z,99789.33
2023-03-14T23:59:54.297Z,99793.73
